sensor_id;sensor_type;location;lat;lon;timestamp;temperature;humidity
51500;DHT22;39101;53.478;6.158;2022-09-03T00:01:28;17.80;99.90
51500;DHT22;39101;53.478;6.158;2022-09-03T00:04:02;17.70;99.90
51500;DHT22;39101;53.478;6.158;2022-09-03T00:06:37;17.70;99.90
51500;DHT22;39101;53.478;6.158;2022-09-03T00:09:20;17.70;99.90
51500;DHT22;39101;53.478;6.158;2022-09-03T00:14:54;17.60;99.90
51500;DHT22;39101;53.478;6.158;2022-09-03T00:17:26;17.60;99.90
51500;DHT22;39101;53.478;6.158;2022-09-03T00:19:59;17.50;99.90
51500;DHT22;39101;53.478;6.158;2022-09-03T00:22:33;17.50;99.90
51500;DHT22;39101;53.478;6.158;2022-09-03T00:25:04;17.50;99.90
51500;DHT22;39101;53.478;6.158;2022-09-03T00:27:35;17.50;99.90
51500;DHT22;39101;53.478;6.158;2022-09-03T00:30:08;17.50;99.90
51500;DHT22;39101;53.478;6.158;2022-09-03T00:32:57;17.50;99.90
51500;DHT22;39101;53.478;6.158;2022-09-03T00:35:43;17.40;99.90
51500;DHT22;39101;53.478;6.158;2022-09-03T00:38:12;17.40;99.90
51500;DHT22;39101;53.478;6.158;2022-09-03T00:46:25;17.30;99.90
51500;DHT22;39101;53.478;6.158;2022-09-03T00:49:20;17.30;99.90
51500;DHT22;39101;53.478;6.158;2022-09-03T00:52:07;17.30;99.90
51500;DHT22;39101;53.478;6.158;2022-09-03T01:05:09;17.20;99.90
51500;DHT22;39101;53.478;6.158;2022-09-03T01:07:45;17.10;99.90
51500;DHT22;39101;53.478;6.158;2022-09-03T01:10:38;17.10;99.90
51500;DHT22;39101;53.478;6.158;2022-09-03T01:13:19;17.10;99.90
51500;DHT22;39101;53.478;6.158;2022-09-03T01:18:27;17.10;99.90
51500;DHT22;39101;53.478;6.158;2022-09-03T01:29:23;17.00;99.90
51500;DHT22;39101;53.478;6.158;2022-09-03T01:32:06;17.00;99.90
51500;DHT22;39101;53.478;6.158;2022-09-03T01:34:52;17.00;99.90
51500;DHT22;39101;53.478;6.158;2022-09-03T01:37:43;17.00;99.90
51500;DHT22;39101;53.478;6.158;2022-09-03T01:54:08;16.90;99.90
51500;DHT22;39101;53.478;6.158;2022-09-03T01:59:46;16.90;99.90
51500;DHT22;39101;53.478;6.158;2022-09-03T02:02:22;16.90;99.90
51500;DHT22;39101;53.478;6.158;2022-09-03T02:07:47;16.90;99.90
51500;DHT22;39101;53.478;6.158;2022-09-03T02:10:17;16.90;99.90
51500;DHT22;39101;53.478;6.158;2022-09-03T02:12:53;16.90;99.90
51500;DHT22;39101;53.478;6.158;2022-09-03T02:15:21;16.90;99.90
51500;DHT22;39101;53.478;6.158;2022-09-03T02:17:48;16.90;99.90
51500;DHT22;39101;53.478;6.158;2022-09-03T02:20:18;16.80;99.90
51500;DHT22;39101;53.478;6.158;2022-09-03T02:22:46;16.80;99.90
51500;DHT22;39101;53.478;6.158;2022-09-03T02:25:12;16.80;99.90
51500;DHT22;39101;53.478;6.158;2022-09-03T02:27:38;16.80;99.90
51500;DHT22;39101;53.478;6.158;2022-09-03T02:30:05;16.70;99.90
51500;DHT22;39101;53.478;6.158;2022-09-03T02:32:31;16.80;99.90
51500;DHT22;39101;53.478;6.158;2022-09-03T02:34:57;16.70;99.90
51500;DHT22;39101;53.478;6.158;2022-09-03T02:37:23;16.70;99.90
51500;DHT22;39101;53.478;6.158;2022-09-03T02:39:49;16.70;99.90
51500;DHT22;39101;53.478;6.158;2022-09-03T02:42:18;16.70;99.90
51500;DHT22;39101;53.478;6.158;2022-09-03T02:44:49;16.70;99.90
51500;DHT22;39101;53.478;6.158;2022-09-03T02:47:17;16.70;99.90
51500;DHT22;39101;53.478;6.158;2022-09-03T02:49:46;16.70;99.90
51500;DHT22;39101;53.478;6.158;2022-09-03T02:52:12;16.60;99.90
51500;DHT22;39101;53.478;6.158;2022-09-03T02:54:38;16.60;99.90
51500;DHT22;39101;53.478;6.158;2022-09-03T02:57:08;16.60;99.90
51500;DHT22;39101;53.478;6.158;2022-09-03T02:59:35;16.60;99.90
51500;DHT22;39101;53.478;6.158;2022-09-03T03:02:02;16.60;99.90
51500;DHT22;39101;53.478;6.158;2022-09-03T03:04:29;16.60;99.90
51500;DHT22;39101;53.478;6.158;2022-09-03T03:06:55;16.60;99.90
51500;DHT22;39101;53.478;6.158;2022-09-03T03:09:20;16.60;99.90
51500;DHT22;39101;53.478;6.158;2022-09-03T03:11:46;16.60;99.90
51500;DHT22;39101;53.478;6.158;2022-09-03T03:14:14;16.60;99.90
51500;DHT22;39101;53.478;6.158;2022-09-03T03:16:40;16.60;99.90
51500;DHT22;39101;53.478;6.158;2022-09-03T03:19:06;16.60;99.90
51500;DHT22;39101;53.478;6.158;2022-09-03T03:21:31;16.50;99.90
51500;DHT22;39101;53.478;6.158;2022-09-03T03:23:57;16.50;99.90
51500;DHT22;39101;53.478;6.158;2022-09-03T03:26:22;16.50;99.90
51500;DHT22;39101;53.478;6.158;2022-09-03T03:28:54;16.50;99.90
51500;DHT22;39101;53.478;6.158;2022-09-03T03:31:21;16.50;99.90
51500;DHT22;39101;53.478;6.158;2022-09-03T03:33:55;16.50;99.90
51500;DHT22;39101;53.478;6.158;2022-09-03T03:36:22;16.50;99.90
51500;DHT22;39101;53.478;6.158;2022-09-03T03:38:48;16.50;99.90
51500;DHT22;39101;53.478;6.158;2022-09-03T03:41:16;16.50;99.90
51500;DHT22;39101;53.478;6.158;2022-09-03T03:43:42;16.40;99.90
51500;DHT22;39101;53.478;6.158;2022-09-03T03:46:08;16.40;99.90
51500;DHT22;39101;53.478;6.158;2022-09-03T03:48:35;16.40;99.90
51500;DHT22;39101;53.478;6.158;2022-09-03T03:51:02;16.40;99.90
51500;DHT22;39101;53.478;6.158;2022-09-03T03:53:34;16.40;99.90
51500;DHT22;39101;53.478;6.158;2022-09-03T03:56:02;16.40;99.90
51500;DHT22;39101;53.478;6.158;2022-09-03T03:58:29;16.30;99.90
51500;DHT22;39101;53.478;6.158;2022-09-03T04:01:07;16.30;99.90
51500;DHT22;39101;53.478;6.158;2022-09-03T04:03:34;16.30;99.90
51500;DHT22;39101;53.478;6.158;2022-09-03T04:06:00;16.20;99.90
51500;DHT22;39101;53.478;6.158;2022-09-03T04:08:27;16.20;99.90
51500;DHT22;39101;53.478;6.158;2022-09-03T04:10:53;16.20;99.90
51500;DHT22;39101;53.478;6.158;2022-09-03T04:13:19;16.20;99.90
51500;DHT22;39101;53.478;6.158;2022-09-03T04:15:45;16.10;99.90
51500;DHT22;39101;53.478;6.158;2022-09-03T04:18:11;16.10;99.90
51500;DHT22;39101;53.478;6.158;2022-09-03T04:20:37;16.00;99.90
51500;DHT22;39101;53.478;6.158;2022-09-03T04:23:03;16.00;99.90
51500;DHT22;39101;53.478;6.158;2022-09-03T04:25:29;16.00;99.90
51500;DHT22;39101;53.478;6.158;2022-09-03T04:27:56;16.00;99.90
51500;DHT22;39101;53.478;6.158;2022-09-03T04:30:21;16.00;99.90
51500;DHT22;39101;53.478;6.158;2022-09-03T04:32:50;16.00;99.90
51500;DHT22;39101;53.478;6.158;2022-09-03T04:35:24;15.90;99.90
51500;DHT22;39101;53.478;6.158;2022-09-03T04:37:50;16.00;99.90
51500;DHT22;39101;53.478;6.158;2022-09-03T04:40:16;15.90;99.90
51500;DHT22;39101;53.478;6.158;2022-09-03T04:42:42;15.90;99.90
51500;DHT22;39101;53.478;6.158;2022-09-03T04:45:08;16.00;99.90
51500;DHT22;39101;53.478;6.158;2022-09-03T04:47:34;15.90;99.90
51500;DHT22;39101;53.478;6.158;2022-09-03T04:50:03;15.90;99.90
51500;DHT22;39101;53.478;6.158;2022-09-03T04:52:28;15.90;99.90
51500;DHT22;39101;53.478;6.158;2022-09-03T04:54:56;15.90;99.90
51500;DHT22;39101;53.478;6.158;2022-09-03T04:57:22;15.80;99.90
51500;DHT22;39101;53.478;6.158;2022-09-03T04:59:48;15.80;99.90
51500;DHT22;39101;53.478;6.158;2022-09-03T05:02:13;15.80;99.90
51500;DHT22;39101;53.478;6.158;2022-09-03T05:04:41;15.80;99.90
51500;DHT22;39101;53.478;6.158;2022-09-03T05:07:07;15.70;99.90
51500;DHT22;39101;53.478;6.158;2022-09-03T05:09:32;15.70;99.90
51500;DHT22;39101;53.478;6.158;2022-09-03T05:11:59;15.70;99.90
51500;DHT22;39101;53.478;6.158;2022-09-03T05:14:24;15.70;99.90
51500;DHT22;39101;53.478;6.158;2022-09-03T05:16:50;15.70;99.90
51500;DHT22;39101;53.478;6.158;2022-09-03T05:19:16;15.70;99.90
51500;DHT22;39101;53.478;6.158;2022-09-03T05:21:42;15.70;99.90
51500;DHT22;39101;53.478;6.158;2022-09-03T05:24:08;15.70;99.90
51500;DHT22;39101;53.478;6.158;2022-09-03T05:26:37;15.70;99.90
51500;DHT22;39101;53.478;6.158;2022-09-03T05:29:04;15.70;99.90
51500;DHT22;39101;53.478;6.158;2022-09-03T05:31:35;15.70;99.90
51500;DHT22;39101;53.478;6.158;2022-09-03T05:34:02;15.70;99.90
51500;DHT22;39101;53.478;6.158;2022-09-03T05:36:34;15.70;99.90
51500;DHT22;39101;53.478;6.158;2022-09-03T05:39:00;15.70;99.90
51500;DHT22;39101;53.478;6.158;2022-09-03T05:41:27;15.70;99.90
51500;DHT22;39101;53.478;6.158;2022-09-03T05:43:54;15.80;99.90
51500;DHT22;39101;53.478;6.158;2022-09-03T05:46:25;15.80;99.90
51500;DHT22;39101;53.478;6.158;2022-09-03T05:48:59;15.80;99.90
51500;DHT22;39101;53.478;6.158;2022-09-03T05:51:26;15.90;99.90
51500;DHT22;39101;53.478;6.158;2022-09-03T05:53:51;15.90;99.90
51500;DHT22;39101;53.478;6.158;2022-09-03T05:56:21;16.00;99.90
51500;DHT22;39101;53.478;6.158;2022-09-03T05:58:49;16.00;99.90
51500;DHT22;39101;53.478;6.158;2022-09-03T06:01:16;16.00;99.90
51500;DHT22;39101;53.478;6.158;2022-09-03T06:03:43;16.10;99.90
51500;DHT22;39101;53.478;6.158;2022-09-03T06:06:10;16.10;99.90
51500;DHT22;39101;53.478;6.158;2022-09-03T06:08:38;16.10;99.90
51500;DHT22;39101;53.478;6.158;2022-09-03T06:11:04;16.10;99.90
51500;DHT22;39101;53.478;6.158;2022-09-03T06:13:31;16.10;99.90
51500;DHT22;39101;53.478;6.158;2022-09-03T06:15:58;16.10;99.90
51500;DHT22;39101;53.478;6.158;2022-09-03T06:18:25;16.20;99.90
51500;DHT22;39101;53.478;6.158;2022-09-03T06:23:21;16.20;99.90
51500;DHT22;39101;53.478;6.158;2022-09-03T06:25:46;16.20;99.90
51500;DHT22;39101;53.478;6.158;2022-09-03T06:28:12;16.30;99.90
51500;DHT22;39101;53.478;6.158;2022-09-03T06:30:38;16.40;99.90
51500;DHT22;39101;53.478;6.158;2022-09-03T06:33:04;16.40;99.90
51500;DHT22;39101;53.478;6.158;2022-09-03T06:35:29;16.50;99.90
51500;DHT22;39101;53.478;6.158;2022-09-03T06:37:55;16.50;99.90
51500;DHT22;39101;53.478;6.158;2022-09-03T06:40:21;16.60;99.90
51500;DHT22;39101;53.478;6.158;2022-09-03T06:42:57;16.60;99.90
51500;DHT22;39101;53.478;6.158;2022-09-03T06:45:27;16.70;99.90
51500;DHT22;39101;53.478;6.158;2022-09-03T06:47:53;16.70;99.90
51500;DHT22;39101;53.478;6.158;2022-09-03T06:50:19;16.70;99.90
51500;DHT22;39101;53.478;6.158;2022-09-03T06:52:50;16.70;99.90
51500;DHT22;39101;53.478;6.158;2022-09-03T06:55:17;16.80;99.90
51500;DHT22;39101;53.478;6.158;2022-09-03T06:57:43;16.80;99.90
51500;DHT22;39101;53.478;6.158;2022-09-03T07:00:09;16.80;99.90
51500;DHT22;39101;53.478;6.158;2022-09-03T07:02:35;16.80;99.90
51500;DHT22;39101;53.478;6.158;2022-09-03T07:05:00;16.90;99.90
51500;DHT22;39101;53.478;6.158;2022-09-03T07:07:26;16.90;99.90
51500;DHT22;39101;53.478;6.158;2022-09-03T07:09:52;16.90;99.90
51500;DHT22;39101;53.478;6.158;2022-09-03T07:12:18;17.00;99.90
51500;DHT22;39101;53.478;6.158;2022-09-03T07:14:46;17.00;99.90
51500;DHT22;39101;53.478;6.158;2022-09-03T07:17:11;17.10;99.90
51500;DHT22;39101;53.478;6.158;2022-09-03T07:19:37;17.10;99.90
51500;DHT22;39101;53.478;6.158;2022-09-03T07:22:03;17.10;99.90
51500;DHT22;39101;53.478;6.158;2022-09-03T07:24:29;17.20;99.90
51500;DHT22;39101;53.478;6.158;2022-09-03T07:26:55;17.20;99.90
51500;DHT22;39101;53.478;6.158;2022-09-03T07:29:22;17.30;99.90
51500;DHT22;39101;53.478;6.158;2022-09-03T07:31:49;17.30;99.90
51500;DHT22;39101;53.478;6.158;2022-09-03T07:34:15;17.40;99.90
51500;DHT22;39101;53.478;6.158;2022-09-03T07:36:46;17.40;99.90
51500;DHT22;39101;53.478;6.158;2022-09-03T07:39:13;17.50;99.90
51500;DHT22;39101;53.478;6.158;2022-09-03T07:41:40;17.60;99.90
51500;DHT22;39101;53.478;6.158;2022-09-03T07:44:09;17.60;99.90
51500;DHT22;39101;53.478;6.158;2022-09-03T07:46:36;17.70;99.90
51500;DHT22;39101;53.478;6.158;2022-09-03T07:49:03;17.70;99.90
51500;DHT22;39101;53.478;6.158;2022-09-03T07:51:37;17.80;99.90
51500;DHT22;39101;53.478;6.158;2022-09-03T07:54:05;17.80;99.90
51500;DHT22;39101;53.478;6.158;2022-09-03T07:56:33;17.90;99.90
51500;DHT22;39101;53.478;6.158;2022-09-03T07:59:00;17.90;99.90
51500;DHT22;39101;53.478;6.158;2022-09-03T08:01:27;18.00;99.90
51500;DHT22;39101;53.478;6.158;2022-09-03T08:03:59;18.10;99.90
51500;DHT22;39101;53.478;6.158;2022-09-03T08:06:27;18.20;99.90
51500;DHT22;39101;53.478;6.158;2022-09-03T08:09:03;18.30;99.90
51500;DHT22;39101;53.478;6.158;2022-09-03T08:11:29;18.40;99.90
51500;DHT22;39101;53.478;6.158;2022-09-03T08:14:07;18.40;99.90
51500;DHT22;39101;53.478;6.158;2022-09-03T08:16:39;18.50;99.90
51500;DHT22;39101;53.478;6.158;2022-09-03T08:19:06;18.60;99.90
51500;DHT22;39101;53.478;6.158;2022-09-03T08:21:32;18.60;99.90
51500;DHT22;39101;53.478;6.158;2022-09-03T08:23:58;18.70;99.90
51500;DHT22;39101;53.478;6.158;2022-09-03T08:26:32;18.70;99.90
51500;DHT22;39101;53.478;6.158;2022-09-03T08:28:58;18.80;99.90
51500;DHT22;39101;53.478;6.158;2022-09-03T08:31:24;18.90;99.90
51500;DHT22;39101;53.478;6.158;2022-09-03T08:33:52;18.90;99.90
51500;DHT22;39101;53.478;6.158;2022-09-03T08:36:20;19.00;99.90
51500;DHT22;39101;53.478;6.158;2022-09-03T08:38:48;19.00;99.90
51500;DHT22;39101;53.478;6.158;2022-09-03T08:51:56;19.40;99.90
51500;DHT22;39101;53.478;6.158;2022-09-03T08:54:29;19.40;99.90
51500;DHT22;39101;53.478;6.158;2022-09-03T08:56:59;19.50;99.90
51500;DHT22;39101;53.478;6.158;2022-09-03T08:59:26;19.50;99.90
51500;DHT22;39101;53.478;6.158;2022-09-03T09:01:58;19.50;99.90
51500;DHT22;39101;53.478;6.158;2022-09-03T09:08:02;19.70;99.90
51500;DHT22;39101;53.478;6.158;2022-09-03T09:10:47;19.80;99.90
51500;DHT22;39101;53.478;6.158;2022-09-03T09:16:25;19.90;99.90
51500;DHT22;39101;53.478;6.158;2022-09-03T09:21:17;20.10;99.90
51500;DHT22;39101;53.478;6.158;2022-09-03T09:23:48;20.10;99.90
51500;DHT22;39101;53.478;6.158;2022-09-03T09:26:19;20.20;99.90
51500;DHT22;39101;53.478;6.158;2022-09-03T09:28:57;20.30;99.90
51500;DHT22;39101;53.478;6.158;2022-09-03T09:31:26;20.30;99.90
51500;DHT22;39101;53.478;6.158;2022-09-03T09:33:52;20.30;99.90
51500;DHT22;39101;53.478;6.158;2022-09-03T09:36:18;20.40;99.90
51500;DHT22;39101;53.478;6.158;2022-09-03T09:38:45;20.30;99.90
51500;DHT22;39101;53.478;6.158;2022-09-03T09:41:15;20.50;99.90
51500;DHT22;39101;53.478;6.158;2022-09-03T09:43:43;20.50;99.90
51500;DHT22;39101;53.478;6.158;2022-09-03T09:46:24;20.50;99.90
51500;DHT22;39101;53.478;6.158;2022-09-03T09:48:52;20.60;99.90
51500;DHT22;39101;53.478;6.158;2022-09-03T09:51:21;20.60;99.90
51500;DHT22;39101;53.478;6.158;2022-09-03T09:53:47;20.60;99.90
51500;DHT22;39101;53.478;6.158;2022-09-03T09:56:24;20.70;99.90
51500;DHT22;39101;53.478;6.158;2022-09-03T09:59:01;20.70;99.90
51500;DHT22;39101;53.478;6.158;2022-09-03T10:01:27;20.80;99.90
51500;DHT22;39101;53.478;6.158;2022-09-03T10:03:57;20.80;99.90
51500;DHT22;39101;53.478;6.158;2022-09-03T10:06:27;20.80;99.90
51500;DHT22;39101;53.478;6.158;2022-09-03T10:09:18;20.90;99.90
51500;DHT22;39101;53.478;6.158;2022-09-03T10:12:07;20.90;99.90
51500;DHT22;39101;53.478;6.158;2022-09-03T10:15:24;21.00;99.90
51500;DHT22;39101;53.478;6.158;2022-09-03T10:20:38;21.10;99.90
51500;DHT22;39101;53.478;6.158;2022-09-03T10:23:23;21.10;99.90
51500;DHT22;39101;53.478;6.158;2022-09-03T10:28:25;21.10;99.90
51500;DHT22;39101;53.478;6.158;2022-09-03T10:34:28;21.20;99.90
51500;DHT22;39101;53.478;6.158;2022-09-03T10:39:55;21.30;99.90
51500;DHT22;39101;53.478;6.158;2022-09-03T10:48:06;21.50;99.90
51500;DHT22;39101;53.478;6.158;2022-09-03T10:53:33;21.70;99.90
51500;DHT22;39101;53.478;6.158;2022-09-03T10:56:31;21.70;99.90
51500;DHT22;39101;53.478;6.158;2022-09-03T11:07:11;21.80;99.90
51500;DHT22;39101;53.478;6.158;2022-09-03T11:12:49;21.90;99.90
51500;DHT22;39101;53.478;6.158;2022-09-03T11:17:53;22.00;99.90
51500;DHT22;39101;53.478;6.158;2022-09-03T11:20:23;22.10;99.90
51500;DHT22;39101;53.478;6.158;2022-09-03T11:22:53;22.10;99.90
51500;DHT22;39101;53.478;6.158;2022-09-03T11:25:21;22.10;99.90
51500;DHT22;39101;53.478;6.158;2022-09-03T11:33:18;22.20;99.90
51500;DHT22;39101;53.478;6.158;2022-09-03T11:35:45;22.20;99.90
51500;DHT22;39101;53.478;6.158;2022-09-03T11:45:59;22.30;99.90
51500;DHT22;39101;53.478;6.158;2022-09-03T11:48:46;22.30;99.90
51500;DHT22;39101;53.478;6.158;2022-09-03T11:51:28;22.40;99.90
51500;DHT22;39101;53.478;6.158;2022-09-03T11:54:06;22.40;99.90
51500;DHT22;39101;53.478;6.158;2022-09-03T11:56:33;22.50;99.90
51500;DHT22;39101;53.478;6.158;2022-09-03T12:01:42;22.50;99.90
51500;DHT22;39101;53.478;6.158;2022-09-03T12:04:13;22.50;99.90
51500;DHT22;39101;53.478;6.158;2022-09-03T12:10:10;22.50;99.90
51500;DHT22;39101;53.478;6.158;2022-09-03T12:18:10;22.60;99.90
51500;DHT22;39101;53.478;6.158;2022-09-03T12:21:09;22.60;99.90
51500;DHT22;39101;53.478;6.158;2022-09-03T12:23:50;22.60;99.90
51500;DHT22;39101;53.478;6.158;2022-09-03T12:26:22;22.60;99.90
51500;DHT22;39101;53.478;6.158;2022-09-03T12:28:57;22.60;99.90
51500;DHT22;39101;53.478;6.158;2022-09-03T12:31:26;22.60;99.90
51500;DHT22;39101;53.478;6.158;2022-09-03T12:34:04;22.60;99.90
51500;DHT22;39101;53.478;6.158;2022-09-03T12:36:39;22.60;99.90
51500;DHT22;39101;53.478;6.158;2022-09-03T12:39:09;22.70;99.90
51500;DHT22;39101;53.478;6.158;2022-09-03T12:41:35;22.70;99.90
51500;DHT22;39101;53.478;6.158;2022-09-03T12:44:02;22.70;99.90
51500;DHT22;39101;53.478;6.158;2022-09-03T12:46:31;22.70;99.90
51500;DHT22;39101;53.478;6.158;2022-09-03T12:49:01;22.70;99.90
51500;DHT22;39101;53.478;6.158;2022-09-03T12:51:40;22.70;99.90
51500;DHT22;39101;53.478;6.158;2022-09-03T12:54:09;22.70;99.90
51500;DHT22;39101;53.478;6.158;2022-09-03T12:56:45;22.70;99.90
51500;DHT22;39101;53.478;6.158;2022-09-03T12:59:17;22.70;99.90
51500;DHT22;39101;53.478;6.158;2022-09-03T13:01:52;22.70;99.90
51500;DHT22;39101;53.478;6.158;2022-09-03T13:04:26;22.70;99.90
51500;DHT22;39101;53.478;6.158;2022-09-03T13:07:03;22.70;99.90
51500;DHT22;39101;53.478;6.158;2022-09-03T13:09:32;22.70;99.90
51500;DHT22;39101;53.478;6.158;2022-09-03T13:11:59;22.70;99.90
51500;DHT22;39101;53.478;6.158;2022-09-03T13:14:29;22.70;99.90
51500;DHT22;39101;53.478;6.158;2022-09-03T13:20:15;22.70;99.90
51500;DHT22;39101;53.478;6.158;2022-09-03T13:25:40;22.60;99.90
51500;DHT22;39101;53.478;6.158;2022-09-03T13:31:07;22.70;99.90
51500;DHT22;39101;53.478;6.158;2022-09-03T13:33:42;22.70;99.90
51500;DHT22;39101;53.478;6.158;2022-09-03T13:36:17;22.80;99.90
51500;DHT22;39101;53.478;6.158;2022-09-03T13:39:02;22.80;99.90
51500;DHT22;39101;53.478;6.158;2022-09-03T13:50:16;22.70;99.90
51500;DHT22;39101;53.478;6.158;2022-09-03T13:55:48;22.70;99.90
51500;DHT22;39101;53.478;6.158;2022-09-03T13:58:31;22.80;99.90
51500;DHT22;39101;53.478;6.158;2022-09-03T14:03:44;22.80;99.90
51500;DHT22;39101;53.478;6.158;2022-09-03T14:16:55;22.70;99.90
51500;DHT22;39101;53.478;6.158;2022-09-03T14:22:10;22.70;99.90
51500;DHT22;39101;53.478;6.158;2022-09-03T14:24:54;22.70;99.90
51500;DHT22;39101;53.478;6.158;2022-09-03T14:27:26;22.70;99.90
51500;DHT22;39101;53.478;6.158;2022-09-03T14:40:17;22.70;99.90
51500;DHT22;39101;53.478;6.158;2022-09-03T14:42:56;22.70;99.90
51500;DHT22;39101;53.478;6.158;2022-09-03T14:53:41;22.70;99.90
51500;DHT22;39101;53.478;6.158;2022-09-03T14:59:07;22.70;99.90
51500;DHT22;39101;53.478;6.158;2022-09-03T15:01:37;22.70;99.90
51500;DHT22;39101;53.478;6.158;2022-09-03T15:10:37;22.60;99.90
51500;DHT22;39101;53.478;6.158;2022-09-03T15:13:22;22.60;99.90
51500;DHT22;39101;53.478;6.158;2022-09-03T15:22:40;22.60;99.90
51500;DHT22;39101;53.478;6.158;2022-09-03T15:33:36;22.70;99.90
51500;DHT22;39101;53.478;6.158;2022-09-03T15:44:10;22.70;99.90
51500;DHT22;39101;53.478;6.158;2022-09-03T15:46:55;22.70;99.90
51500;DHT22;39101;53.478;6.158;2022-09-03T16:00:20;22.60;99.90
51500;DHT22;39101;53.478;6.158;2022-09-03T16:03:05;22.60;99.90
51500;DHT22;39101;53.478;6.158;2022-09-03T16:05:54;22.60;99.90
51500;DHT22;39101;53.478;6.158;2022-09-03T16:14:00;22.60;99.90
51500;DHT22;39101;53.478;6.158;2022-09-03T16:22:18;22.60;99.90
51500;DHT22;39101;53.478;6.158;2022-09-03T16:24:54;22.60;99.90
51500;DHT22;39101;53.478;6.158;2022-09-03T16:30:34;22.60;99.90
51500;DHT22;39101;53.478;6.158;2022-09-03T16:36:36;22.40;99.90
51500;DHT22;39101;53.478;6.158;2022-09-03T16:39:01;22.30;99.90
51500;DHT22;39101;53.478;6.158;2022-09-03T16:44:30;22.10;99.90
51500;DHT22;39101;53.478;6.158;2022-09-03T16:47:32;22.10;99.90
51500;DHT22;39101;53.478;6.158;2022-09-03T16:50:30;22.10;99.90
51500;DHT22;39101;53.478;6.158;2022-09-03T16:53:23;22.10;99.90
51500;DHT22;39101;53.478;6.158;2022-09-03T17:21:29;21.70;99.90
51500;DHT22;39101;53.478;6.158;2022-09-03T17:41:05;21.10;99.90
51500;DHT22;39101;53.478;6.158;2022-09-03T17:46:23;20.90;99.90
51500;DHT22;39101;53.478;6.158;2022-09-03T17:48:52;20.80;99.90
51500;DHT22;39101;53.478;6.158;2022-09-03T17:54:13;20.70;99.90
51500;DHT22;39101;53.478;6.158;2022-09-03T18:07:37;20.40;99.90
51500;DHT22;39101;53.478;6.158;2022-09-03T18:10:31;20.40;99.90
51500;DHT22;39101;53.478;6.158;2022-09-03T18:13:38;20.30;99.90
51500;DHT22;39101;53.478;6.158;2022-09-03T18:16:27;20.20;99.90
51500;DHT22;39101;53.478;6.158;2022-09-03T18:21:27;20.10;99.90
51500;DHT22;39101;53.478;6.158;2022-09-03T18:24:38;20.10;99.90
51500;DHT22;39101;53.478;6.158;2022-09-03T18:27:53;20.00;99.90
51500;DHT22;39101;53.478;6.158;2022-09-03T18:30:39;20.00;99.90
51500;DHT22;39101;53.478;6.158;2022-09-03T18:33:24;20.00;99.90
51500;DHT22;39101;53.478;6.158;2022-09-03T18:36:10;20.00;99.90
51500;DHT22;39101;53.478;6.158;2022-09-03T18:39:13;19.90;99.90
51500;DHT22;39101;53.478;6.158;2022-09-03T18:42:12;19.80;99.90
51500;DHT22;39101;53.478;6.158;2022-09-03T18:45:50;19.80;99.90
51500;DHT22;39101;53.478;6.158;2022-09-03T18:48:27;19.80;99.90
51500;DHT22;39101;53.478;6.158;2022-09-03T19:00:30;19.70;99.90
51500;DHT22;39101;53.478;6.158;2022-09-03T19:03:34;19.60;99.90
51500;DHT22;39101;53.478;6.158;2022-09-03T19:09:18;19.60;99.90
51500;DHT22;39101;53.478;6.158;2022-09-03T19:12:15;19.60;99.90
51500;DHT22;39101;53.478;6.158;2022-09-03T19:15:01;19.50;99.90
51500;DHT22;39101;53.478;6.158;2022-09-03T19:22:11;19.50;99.90
51500;DHT22;39101;53.478;6.158;2022-09-03T19:24:28;19.50;99.90
51500;DHT22;39101;53.478;6.158;2022-09-03T19:30:25;19.50;99.90
51500;DHT22;39101;53.478;6.158;2022-09-03T19:36:32;19.40;99.90
51500;DHT22;39101;53.478;6.158;2022-09-03T19:39:45;19.40;99.90
51500;DHT22;39101;53.478;6.158;2022-09-03T19:46:04;19.30;99.90
51500;DHT22;39101;53.478;6.158;2022-09-03T19:52:52;19.30;99.90
51500;DHT22;39101;53.478;6.158;2022-09-03T19:55:47;19.20;99.90
51500;DHT22;39101;53.478;6.158;2022-09-03T19:58:34;19.20;99.90
51500;DHT22;39101;53.478;6.158;2022-09-03T20:01:19;19.20;99.90
51500;DHT22;39101;53.478;6.158;2022-09-03T20:04:13;19.10;99.90
51500;DHT22;39101;53.478;6.158;2022-09-03T20:07:01;19.10;99.90
51500;DHT22;39101;53.478;6.158;2022-09-03T20:09:47;19.00;99.90
51500;DHT22;39101;53.478;6.158;2022-09-03T20:12:35;19.00;99.90
51500;DHT22;39101;53.478;6.158;2022-09-03T20:15:06;19.00;99.90
51500;DHT22;39101;53.478;6.158;2022-09-03T20:17:50;19.00;99.90
51500;DHT22;39101;53.478;6.158;2022-09-03T20:20:21;18.90;99.90
51500;DHT22;39101;53.478;6.158;2022-09-03T20:23:02;18.90;99.90
51500;DHT22;39101;53.478;6.158;2022-09-03T20:31:09;18.90;99.90
51500;DHT22;39101;53.478;6.158;2022-09-03T20:59:08;18.70;99.90
51500;DHT22;39101;53.478;6.158;2022-09-03T21:04:47;18.70;99.90
51500;DHT22;39101;53.478;6.158;2022-09-03T21:07:31;18.70;99.90
51500;DHT22;39101;53.478;6.158;2022-09-03T21:15:48;18.70;99.90
51500;DHT22;39101;53.478;6.158;2022-09-03T21:18:25;18.60;99.90
51500;DHT22;39101;53.478;6.158;2022-09-03T21:26:33;18.50;99.90
51500;DHT22;39101;53.478;6.158;2022-09-03T21:29:24;18.50;99.90
51500;DHT22;39101;53.478;6.158;2022-09-03T21:32:01;18.50;99.90
51500;DHT22;39101;53.478;6.158;2022-09-03T21:34:29;18.50;99.90
51500;DHT22;39101;53.478;6.158;2022-09-03T21:36:55;18.50;99.90
51500;DHT22;39101;53.478;6.158;2022-09-03T21:39:32;18.40;99.90
51500;DHT22;39101;53.478;6.158;2022-09-03T21:42:15;18.40;99.90
51500;DHT22;39101;53.478;6.158;2022-09-03T21:45:21;18.30;99.90
51500;DHT22;39101;53.478;6.158;2022-09-03T21:47:52;18.30;99.90
51500;DHT22;39101;53.478;6.158;2022-09-03T21:50:28;18.30;99.90
51500;DHT22;39101;53.478;6.158;2022-09-03T21:56:04;18.20;99.90
51500;DHT22;39101;53.478;6.158;2022-09-03T22:02:03;18.20;99.90
51500;DHT22;39101;53.478;6.158;2022-09-03T22:04:30;18.10;99.90
51500;DHT22;39101;53.478;6.158;2022-09-03T22:15:02;17.90;99.90
51500;DHT22;39101;53.478;6.158;2022-09-03T22:18:00;18.00;99.90
51500;DHT22;39101;53.478;6.158;2022-09-03T22:20:28;17.90;99.90
51500;DHT22;39101;53.478;6.158;2022-09-03T22:23:02;17.90;99.90
51500;DHT22;39101;53.478;6.158;2022-09-03T22:25:54;17.90;99.90
51500;DHT22;39101;53.478;6.158;2022-09-03T22:31:20;17.80;99.90
51500;DHT22;39101;53.478;6.158;2022-09-03T22:36:36;17.80;99.90
51500;DHT22;39101;53.478;6.158;2022-09-03T22:42:04;17.70;99.90
51500;DHT22;39101;53.478;6.158;2022-09-03T22:47:45;17.70;99.90
51500;DHT22;39101;53.478;6.158;2022-09-03T22:50:29;17.60;99.90
51500;DHT22;39101;53.478;6.158;2022-09-03T22:55:22;17.60;99.90
51500;DHT22;39101;53.478;6.158;2022-09-03T22:58:16;17.60;99.90
51500;DHT22;39101;53.478;6.158;2022-09-03T23:00:55;17.50;99.90
51500;DHT22;39101;53.478;6.158;2022-09-03T23:03:34;17.50;99.90
51500;DHT22;39101;53.478;6.158;2022-09-03T23:06:09;17.50;99.90